AirNav   Everest Fuels
 
 1060 users online  

NM56 Mystic Bluffs Airport
Ramah, New Mexico, USA

GOING TO RAMAH?


FAA INFORMATION EFFECTIVE 18 JUNE 2020

Location

FAA Identifier: NM56
Lat/Long: 35-09-55.1170N 108-27-32.2640W
35-09.918617N 108-27.537733W
35.1653103,-108.4589622
(estimated)
Elevation: 6980 ft. / 2128 m (estimated)
Variation: 12E (1985)
From city: 2 miles NE of RAMAH, NM
Time zone: UTC -6 (UTC -7 during Standard Time)
Zip code: 87321

Airport Operations

Airport use: Private use. Permission required prior to landing
Activation date: 06/1987
Control tower: no
ARTCC: ALBUQUERQUE CENTER
FSS: ALBUQUERQUE FLIGHT SERVICE STATION
Attendance: UNATNDD
Segmented circle: no

Airport Communications

UNICOM: 123.0

Nearby radio navigation aids

VOR radial/distance  VOR name  Freq  Var
GUPr119/27.5GALLUP VORTAC115.1014E
ZUNr057/36.2ZUNI VORTAC113.4014E

Airport Services

Runway Information

Runway 6/24

Dimensions: 2870 x 40 ft. / 875 x 12 m
Surface: dirt, in good condition
RUNWAY 6  RUNWAY 24
Traffic pattern: leftright
Declared distances: TODA:2870 LDA:2870TODA:2870 LDA:2870

Airport Ownership and Management from official FAA records

Ownership: Privately-owned
Owner: CYNTHIA J. CRAWFORD
123 CHAMPIONSHIP WY
LAFOLLETTE, TN 37766
Phone 423-871-1431
Manager: CYNTHIA J. CRAWFORD
123 CHAMPIONSHIP WY
LAFOLLETTE, TN 37766
Phone 423-871-1431
EMAIL: TIMBERLAKECINDY@HOTMAIL.COM

Additional Remarks

RWY 06 TRAFFIC PATTERN: LEFT. RWY 24 TRAFFIC PATTERN: RIGHT.
BE ALERT FOR OCCASIONAL, LOW-LEVEL, MILITARY AIRCRAFT AND DEER.
AN ADDITIONAL 2,000' AT SOUTH/WEST END IS GRADED, BUT ROCKY, AND IS NOT ADVISABLE FOR USE.
POWER LINE WITH, RED BALLS, 350 FT FROM FINAL APPROACH/TOUCHDOWN TO RWY 24.
FOR CD CTC ALBUQUERQUE ARTCC AT 505-856-4861.

Instrument Procedures

There are no published instrument procedures at NM56.

Some nearby airports with instrument procedures:

KGUP - Gallup Municipal Airport (26 nm NW)
KGNT - Grants-Milan Municipal Airport (27 nm E)
KRQE - Window Rock Airport (42 nm NW)
KSJN - St Johns Industrial Air Park (60 nm SW)
KJTC - Springerville Municipal Airport (75 nm SW)
 
Loc | Ops | Rwys | IFR | FBO | Links
Com | Nav | Svcs | Stats | Notes

AirBoss

 
Area around NM56 (Mystic Bluffs Airport)
 
Road maps at: MapQuest Bing Google
 
Aerial photo
WARNING: Photo may not be current or correct
Aerial photo of NM56 (Mystic Bluffs Airport)
Photo by Michael Marker
Photo taken 22-Aug-2014
looking west-southwest.

Do you have a better or more recent aerial photo of Mystic Bluffs Airport that you would like to share? If so, please send us your photo.

 
Sectional chart

 
Airport distance calculator
Flying to Mystic Bluffs Airport? Find the distance to fly.

From to NM56

Sunrise and sunset
Times for 03-Jul-2020
 Local
(UTC-6)
 Zulu
(UTC)
Morning civil twilight05:3611:36
Sunrise06:0512:05
Sunset20:3102:31
Evening civil twilight21:0103:01

Current date and time
Zulu (UTC)  03-Jul-2020 17:34:57
Local (UTC-6)  03-Jul-2020 11:34:57
 
METAR
KGUP 
27nm NW 
031653Z AUTO 30007KT 10SM FEW110 24/06 A3032 RMK AO2 SLP075 T02440056
KGNT 
27nm E 
031715Z AUTO 30006KT 280V340 10SM CLR 28/02 A3030 RMK AO2 T02820019
KRQE 
42nm NW 
031653Z AUTO 30008KT 10SM SCT100 23/06 A3034 RMK AO2 SLP140 T02330056
TAF
KGUP 
27nm NW 
031120Z 0312/0412 VRB06KT P6SM BKN100 FM031800 28011KT P6SM VCSH BKN090 TEMPO 0318/0321 VRB25G32KT -TSRA BKN080CB FM040200 VRB05KT P6SM SCT120
NOTAMs
Click for the latest NOTAMs
NOTAMs are issued by the DoD/FAA and will open in a separate window not controlled by AirNav.

 

 
 

Would you like to see your business listed on this page?

 If your business provides an interesting product or service to pilots, flight crews, aircraft, or users of the Mystic Bluffs Airport, you should consider listing it here.  To start the listing process, click on the button below
 
Add a business
 

Other Pages about Mystic Bluffs Airport

Update a link
 
Copyright © AirNav, LLC. All rights reserved. Privacy Policy  Contact